createdAt,value
2018-12-10T00:00:51.187Z,97.77
2018-12-10T00:03:24.917Z,98.62
2018-12-10T00:05:53.248Z,97.97
2018-12-10T00:08:21.761Z,98.14
2018-12-10T00:10:50.222Z,98.66
2018-12-10T00:13:18.745Z,98.50
2018-12-10T00:15:47.310Z,98.17
2018-12-10T00:18:15.629Z,98.57
2018-12-10T00:20:44.145Z,98.02
2018-12-10T00:23:12.644Z,98.44
2018-12-10T00:25:41.103Z,98.69
2018-12-10T00:28:09.613Z,99.46
2018-12-10T00:30:38.085Z,99.52
2018-12-10T00:33:06.581Z,100.00
2018-12-10T00:35:35.037Z,100.00
2018-12-10T00:38:03.663Z,99.85
2018-12-10T00:40:31.973Z,99.96
2018-12-10T00:43:00.305Z,99.94
2018-12-10T00:45:28.958Z,98.74
2018-12-10T00:47:57.297Z,98.22
2018-12-10T00:50:25.601Z,98.52
2018-12-10T00:52:53.906Z,99.08
2018-12-10T00:55:22.922Z,98.16
2018-12-10T00:57:51.361Z,97.83
2018-12-10T01:00:19.910Z,98.26
2018-12-10T01:02:48.349Z,97.33
2018-12-10T01:05:16.861Z,97.18
2018-12-10T01:07:45.185Z,97.11
2018-12-10T01:10:13.797Z,95.32
2018-12-10T01:12:42.270Z,96.39
2018-12-10T01:15:10.889Z,97.32
2018-12-10T01:17:39.221Z,96.93
2018-12-10T01:20:07.929Z,96.14
2018-12-10T01:22:36.685Z,96.61
2018-12-10T01:25:05.338Z,96.81
2018-12-10T01:27:34.166Z,96.78
2018-12-10T01:30:02.693Z,97.23
2018-12-10T01:32:31.143Z,97.71
2018-12-10T01:34:59.650Z,96.83
2018-12-10T01:37:28.353Z,96.90
2018-12-10T01:39:57.125Z,96.03
2018-12-10T01:42:25.425Z,96.06
2018-12-10T01:44:53.750Z,96.11
2018-12-10T01:47:22.034Z,95.84
2018-12-10T01:49:50.545Z,96.67
2018-12-10T01:52:18.857Z,96.47
2018-12-10T01:54:47.498Z,95.60
2018-12-10T01:57:15.989Z,96.60
2018-12-10T01:59:44.458Z,97.69
2018-12-10T02:02:12.942Z,97.39
2018-12-10T02:04:41.265Z,97.25
2018-12-10T02:07:09.913Z,98.06
2018-12-10T02:09:38.197Z,98.06
2018-12-10T02:12:06.509Z,97.55
2018-12-10T02:14:34.813Z,98.57
2018-12-10T02:17:03.132Z,98.08
2018-12-10T02:19:31.438Z,97.29
2018-12-10T02:21:59.749Z,96.87
2018-12-10T02:24:28.051Z,96.75
2018-12-10T02:26:56.393Z,96.36
2018-12-10T02:29:24.685Z,95.93
2018-12-10T02:31:53.011Z,96.33
2018-12-10T02:34:21.312Z,95.79
2018-12-10T02:36:49.618Z,95.75
2018-12-10T02:39:18.131Z,95.19
2018-12-10T02:41:47.121Z,95.36
2018-12-10T02:44:15.573Z,94.51
2018-12-10T02:46:44.008Z,94.33
2018-12-10T02:49:12.538Z,94.80
2018-12-10T02:51:41.043Z,94.70
2018-12-10T02:54:09.525Z,94.63
2018-12-10T02:56:38.016Z,94.57
2018-12-10T02:59:06.473Z,95.42
2018-12-10T03:01:34.805Z,96.83
2018-12-10T03:04:03.126Z,96.38
2018-12-10T03:06:31.463Z,97.52
2018-12-10T03:08:59.881Z,97.40
2018-12-10T03:11:28.360Z,97.58
2018-12-10T03:13:56.873Z,97.45
2018-12-10T03:16:25.326Z,97.12
2018-12-10T03:18:53.637Z,97.11
2018-12-10T03:21:21.961Z,97.81
2018-12-10T03:23:50.281Z,98.03
2018-12-10T03:26:18.741Z,97.27
2018-12-10T03:28:47.302Z,97.88
2018-12-10T03:31:15.601Z,98.32
2018-12-10T03:33:44.236Z,98.81
2018-12-10T03:36:12.841Z,99.60
2018-12-10T03:38:41.181Z,98.91
2018-12-10T03:41:09.494Z,99.15
2018-12-10T03:43:38.125Z,98.89
2018-12-10T03:46:06.609Z,98.87
2018-12-10T03:48:35.043Z,98.31
2018-12-10T03:51:03.342Z,98.37
2018-12-10T03:53:31.679Z,96.98
2018-12-10T03:55:59.988Z,96.85
2018-12-10T03:58:28.519Z,96.67
2018-12-10T04:00:56.829Z,96.00
2018-12-10T04:03:25.481Z,95.93
2018-12-10T04:05:53.942Z,95.96
2018-12-10T04:08:22.440Z,95.64
2018-12-10T04:10:50.913Z,96.08
2018-12-10T04:13:19.399Z,95.31
2018-12-10T04:15:47.862Z,95.66
2018-12-10T04:18:16.379Z,96.00
2018-12-10T04:20:44.821Z,96.07
2018-12-10T04:23:13.142Z,96.54
2018-12-10T04:25:41.485Z,96.56
2018-12-10T04:28:09.796Z,95.53
2018-12-10T04:30:38.249Z,96.00
2018-12-10T04:33:06.548Z,96.14
2018-12-10T04:35:35.223Z,95.85
2018-12-10T04:38:04.727Z,96.35
2018-12-10T04:40:33.217Z,95.35
2018-12-10T04:43:17.565Z,95.73
2018-12-10T04:45:57.414Z,96.16
2018-12-10T04:48:26.661Z,96.24
2018-12-10T04:50:54.976Z,96.31
2018-12-10T04:53:23.272Z,96.52
2018-12-10T04:55:52.106Z,95.81
2018-12-10T04:58:20.397Z,95.80
2018-12-10T05:00:48.722Z,96.09
2018-12-10T05:03:21.422Z,96.20
2018-12-10T05:05:49.740Z,96.24
2018-12-10T05:08:18.242Z,96.83
2018-12-10T05:10:46.571Z,96.38
2018-12-10T05:13:15.205Z,97.17
2018-12-10T05:15:43.702Z,96.73
2018-12-10T05:18:11.993Z,96.66
2018-12-10T05:20:40.653Z,96.74
2018-12-10T05:23:09.131Z,96.08
2018-12-10T05:25:37.464Z,96.39
2018-12-10T05:28:06.104Z,95.10
2018-12-10T05:30:34.601Z,95.87
2018-12-10T05:33:03.256Z,95.47
2018-12-10T05:35:32.033Z,95.49
2018-12-10T05:38:00.603Z,96.62
2018-12-10T05:40:29.071Z,96.90
2018-12-10T05:42:57.495Z,96.52
2018-12-10T05:45:26.008Z,96.77
2018-12-10T05:47:54.457Z,97.52
2018-12-10T05:50:22.749Z,96.66
2018-12-10T05:52:51.409Z,97.16
2018-12-10T05:55:19.930Z,98.07
2018-12-10T05:57:48.261Z,98.00
2018-12-10T06:00:16.873Z,97.20
2018-12-10T06:02:45.365Z,96.80
2018-12-10T06:05:13.945Z,96.92
2018-12-10T06:07:42.331Z,97.27
2018-12-10T06:10:10.624Z,97.41
2018-12-10T06:12:38.922Z,97.12
2018-12-10T06:15:07.881Z,98.46
2018-12-10T06:17:36.265Z,98.84
2018-12-10T06:20:05.365Z,98.35
2018-12-10T06:22:33.910Z,98.39
2018-12-10T06:25:03.328Z,98.40
2018-12-10T06:27:32.820Z,99.60
2018-12-10T06:30:04.173Z,99.48
2018-12-10T06:32:32.498Z,99.65
2018-12-10T06:35:01.245Z,100.00
2018-12-10T06:37:37.388Z,100.00
2018-12-10T06:40:00.061Z,100.00
2018-12-10T06:42:28.384Z,100.00
2018-12-10T06:44:56.678Z,100.00
2018-12-10T06:47:25.226Z,100.00
2018-12-10T06:49:53.774Z,100.00
2018-12-10T06:52:22.156Z,100.00
2018-12-10T06:54:50.473Z,100.00
2018-12-10T06:57:18.798Z,100.00
2018-12-10T06:59:47.113Z,100.00
2018-12-10T07:02:15.441Z,100.00
2018-12-10T07:04:44.069Z,100.00
2018-12-10T07:07:12.533Z,100.00
2018-12-10T07:09:41.032Z,100.00
2018-12-10T07:12:09.633Z,100.00
2018-12-10T07:14:37.997Z,100.00
2018-12-10T07:17:06.461Z,100.00
2018-12-10T07:19:34.797Z,100.00
2018-12-10T07:22:03.481Z,100.00
2018-12-10T07:24:32.942Z,100.00
2018-12-10T07:27:01.413Z,100.00
2018-12-10T07:29:29.918Z,100.00
2018-12-10T07:31:58.389Z,100.00
2018-12-10T07:34:26.834Z,100.00
2018-12-10T07:36:55.861Z,100.00
2018-12-10T07:39:24.186Z,100.00
2018-12-10T07:41:52.813Z,100.00
2018-12-10T07:44:21.317Z,100.00
2018-12-10T07:46:49.774Z,100.00
2018-12-10T07:49:18.280Z,100.00
2018-12-10T07:51:46.783Z,100.00
2018-12-10T07:54:15.126Z,100.00
2018-12-10T07:56:43.457Z,100.00
2018-12-10T07:59:12.200Z,100.00
2018-12-10T08:01:40.658Z,100.00
2018-12-10T08:04:09.202Z,100.00
2018-12-10T08:06:37.529Z,100.00
2018-12-10T08:09:07.151Z,99.94
2018-12-10T08:11:36.158Z,100.00
2018-12-10T08:14:04.458Z,100.00
2018-12-10T08:16:33.114Z,99.76
2018-12-10T08:19:01.421Z,99.41
2018-12-10T08:21:30.073Z,99.62
2018-12-10T08:23:58.385Z,98.94
2018-12-10T08:26:26.697Z,98.30
2018-12-10T08:28:58.645Z,98.53
2018-12-10T08:31:25.555Z,98.62
2018-12-10T08:33:54.001Z,97.75
2018-12-10T08:36:22.505Z,98.67
2018-12-10T08:38:50.985Z,99.02
2018-12-10T08:41:19.490Z,98.82
2018-12-10T08:43:47.920Z,97.79
2018-12-10T08:46:16.289Z,98.38
2018-12-10T08:48:44.890Z,99.06
2018-12-10T08:51:14.029Z,98.33
2018-12-10T08:53:42.397Z,98.39
2018-12-10T08:56:10.878Z,97.80
2018-12-10T08:58:39.165Z,97.70
2018-12-10T09:01:07.490Z,97.99
2018-12-10T09:03:36.142Z,98.33
2018-12-10T09:06:04.806Z,97.71
2018-12-10T09:08:33.274Z,97.32
2018-12-10T09:11:01.789Z,97.56
2018-12-10T09:13:30.222Z,97.53
2018-12-10T09:15:58.533Z,97.19
2018-12-10T09:18:26.851Z,96.02
2018-12-10T09:20:55.625Z,96.63
2018-12-10T09:23:24.178Z,95.91
2018-12-10T09:25:52.477Z,94.61
2018-12-10T09:28:21.142Z,95.25
2018-12-10T09:30:49.475Z,95.68
2018-12-10T09:33:18.626Z,95.51
2018-12-10T09:35:47.087Z,96.08
2018-12-10T09:38:15.417Z,96.04
2018-12-10T09:40:43.722Z,97.45
2018-12-10T09:43:12.489Z,96.68
2018-12-10T09:45:40.914Z,97.09
2018-12-10T09:48:09.505Z,97.17
2018-12-10T09:50:37.993Z,97.25
2018-12-10T09:53:06.641Z,98.25
2018-12-10T09:55:35.441Z,98.26
2018-12-10T09:58:03.782Z,99.16
2018-12-10T10:00:32.397Z,98.71
2018-12-10T10:03:00.894Z,97.76
2018-12-10T10:05:29.369Z,97.58
2018-12-10T10:07:57.862Z,97.80
2018-12-10T10:10:26.170Z,98.71
2018-12-10T10:12:57.902Z,98.79
2018-12-10T10:15:26.381Z,98.80
2018-12-10T10:17:54.697Z,99.21
2018-12-10T10:20:23.617Z,99.40
2018-12-10T10:22:52.798Z,98.04
2018-12-10T10:25:21.354Z,97.59
2018-12-10T10:27:49.803Z,97.39
2018-12-10T10:30:18.150Z,97.09
2018-12-10T10:32:46.583Z,96.02
2018-12-10T10:35:14.911Z,96.24
2018-12-10T10:37:43.216Z,95.62
2018-12-10T10:40:11.726Z,96.11
2018-12-10T10:42:40.034Z,95.92
2018-12-10T10:45:08.806Z,96.23
2018-12-10T10:47:37.239Z,97.50
2018-12-10T10:50:07.008Z,97.93
2018-12-10T10:52:35.829Z,98.34
2018-12-10T10:55:04.785Z,97.58
2018-12-10T10:57:33.713Z,97.54
2018-12-10T11:00:03.112Z,98.25
2018-12-10T11:02:36.952Z,98.02
2018-12-10T11:05:05.722Z,97.23
2018-12-10T11:07:34.237Z,97.82
2018-12-10T11:10:02.585Z,96.79
2018-12-10T11:12:30.913Z,97.54
2018-12-10T11:14:59.241Z,95.69
2018-12-10T11:17:28.110Z,95.15
2018-12-10T11:19:56.641Z,94.24
2018-12-10T11:22:25.431Z,94.83
2018-12-10T11:24:54.113Z,93.70
2018-12-10T11:27:22.420Z,94.07
2018-12-10T11:29:51.077Z,92.92
2018-12-10T11:32:19.572Z,91.61
2018-12-10T11:34:47.974Z,91.61
2018-12-10T11:37:16.301Z,92.12
2018-12-10T11:39:45.214Z,91.80
2018-12-10T11:42:13.539Z,92.24
2018-12-10T11:44:41.858Z,92.35
2018-12-10T11:47:13.186Z,86.86
2018-12-10T11:49:40.673Z,83.95
2018-12-10T11:52:09.021Z,86.60
2018-12-10T11:54:37.382Z,90.38
2018-12-10T11:57:05.705Z,91.83
2018-12-10T11:59:34.373Z,92.59
2018-12-10T12:02:02.703Z,93.56
2018-12-10T12:04:31.003Z,93.24
2018-12-10T12:06:59.353Z,93.02
2018-12-10T12:11:55.269Z,89.86
2018-12-10T12:14:23.689Z,89.79
2018-12-10T12:16:52.033Z,89.01
2018-12-10T12:19:20.818Z,90.02
2018-12-10T12:21:49.197Z,88.25
2018-12-10T12:24:17.654Z,87.82
2018-12-10T12:26:46.157Z,87.12
2018-12-10T12:29:14.465Z,85.67
2018-12-10T12:31:43.145Z,84.65
2018-12-10T12:34:11.465Z,81.87
2018-12-10T12:36:40.085Z,83.65
2018-12-10T12:39:08.577Z,81.87
2018-12-10T12:41:36.906Z,80.60
2018-12-10T12:44:05.561Z,81.14
2018-12-10T12:46:33.882Z,79.92
2018-12-10T12:49:02.493Z,77.95
2018-12-10T12:51:30.824Z,67.65
2018-12-10T12:53:59.463Z,61.17
2018-12-10T12:56:28.429Z,51.96
2018-12-10T12:58:57.685Z,51.94
2018-12-10T13:01:26.368Z,44.46
2018-12-10T13:03:54.928Z,45.87
2018-12-10T13:06:23.261Z,43.57
2018-12-10T13:08:51.966Z,43.67
2018-12-10T13:11:20.350Z,43.23
2018-12-10T13:13:48.854Z,41.33
2018-12-10T13:16:17.305Z,43.72
2018-12-10T13:18:45.805Z,43.04
2018-12-10T13:21:14.270Z,40.34
2018-12-10T13:23:42.594Z,42.95
2018-12-10T13:26:10.901Z,44.13
2018-12-10T13:28:39.253Z,50.79
2018-12-10T13:31:07.686Z,48.36
2018-12-10T13:33:36.189Z,44.85
2018-12-10T13:36:07.297Z,44.72
2018-12-10T13:38:36.925Z,45.21
2018-12-10T13:41:05.461Z,48.20
2018-12-10T13:43:33.797Z,48.42
2018-12-10T13:46:02.705Z,51.12
2018-12-10T13:48:31.097Z,57.35
2018-12-10T13:50:59.385Z,63.68
2018-12-10T13:53:27.697Z,67.55
2018-12-10T13:55:56.021Z,69.41
2018-12-10T13:58:24.362Z,71.96
2018-12-10T14:00:52.683Z,72.24
2018-12-10T14:03:21.589Z,70.57
2018-12-10T14:05:50.042Z,70.70
2018-12-10T14:08:18.359Z,71.35
2018-12-10T14:10:47.064Z,72.34
2018-12-10T14:13:15.412Z,73.14
2018-12-10T14:15:43.982Z,73.86
2018-12-10T14:18:12.299Z,74.08
2018-12-10T14:20:41.049Z,75.11
2018-12-10T14:23:09.510Z,73.88
2018-12-10T14:25:37.841Z,75.88
2018-12-10T14:28:06.145Z,76.24
2018-12-10T14:30:34.865Z,76.08
2018-12-10T14:33:03.314Z,74.89
2018-12-10T14:35:31.809Z,76.66
2018-12-10T14:38:00.272Z,77.14
2018-12-10T14:40:28.780Z,77.50
2018-12-10T14:42:58.013Z,78.46
2018-12-10T14:45:26.898Z,78.97
2018-12-10T14:47:56.609Z,79.34
2018-12-10T14:50:25.131Z,78.83
2018-12-10T14:52:53.725Z,80.86
2018-12-10T14:55:22.234Z,82.06
2018-12-10T14:57:50.574Z,81.86
2018-12-10T15:00:19.297Z,82.38
2018-12-10T15:02:47.677Z,82.98
2018-12-10T15:05:16.653Z,83.98
2018-12-10T15:07:45.223Z,83.27
2018-12-10T15:10:13.633Z,86.29
2018-12-10T15:12:42.087Z,89.70
2018-12-10T15:15:11.610Z,91.75
2018-12-10T15:17:39.961Z,91.90
2018-12-10T15:20:16.249Z,93.21
2018-12-10T15:22:44.594Z,93.56
2018-12-10T15:25:12.918Z,93.68
2018-12-10T15:27:41.245Z,94.42
2018-12-10T15:30:11.442Z,94.59
2018-12-10T15:32:39.821Z,93.42
2018-12-10T15:35:09.215Z,95.31
2018-12-10T15:37:37.534Z,94.83
2018-12-10T15:40:06.946Z,95.15
2018-12-10T15:42:35.288Z,92.95
2018-12-10T15:45:03.878Z,93.87
2018-12-10T15:47:32.209Z,95.25
2018-12-10T15:50:00.521Z,94.43
2018-12-10T15:52:28.857Z,96.00
2018-12-10T15:54:57.172Z,95.82
2018-12-10T15:57:25.512Z,96.48
2018-12-10T15:59:53.801Z,95.89
2018-12-10T16:02:22.444Z,95.65
2018-12-10T16:04:50.766Z,96.40
2018-12-10T16:07:19.111Z,96.67
2018-12-10T16:09:47.545Z,96.60
2018-12-10T16:12:16.611Z,97.29
2018-12-10T16:14:44.950Z,97.11
2018-12-10T16:17:13.363Z,97.26
2018-12-10T16:19:42.469Z,97.02
2018-12-10T16:22:10.779Z,97.18
2018-12-10T16:24:39.357Z,97.51
2018-12-10T16:27:07.889Z,97.98
2018-12-10T16:29:36.309Z,98.03
2018-12-10T16:32:04.637Z,97.71
2018-12-10T16:34:33.303Z,97.91
2018-12-10T16:37:02.260Z,97.86
2018-12-10T16:39:30.607Z,98.09
2018-12-10T16:41:59.661Z,97.49
2018-12-10T16:44:28.244Z,98.21
2018-12-10T16:46:56.566Z,98.06
2018-12-10T16:49:24.897Z,97.76
2018-12-10T16:51:53.222Z,97.95
2018-12-10T16:54:21.562Z,97.23
2018-12-10T16:56:49.870Z,98.57
2018-12-10T16:59:18.623Z,99.01
2018-12-10T17:01:47.151Z,98.98
2018-12-10T17:04:16.060Z,98.90
2018-12-10T17:06:44.547Z,99.00
2018-12-10T17:09:13.693Z,98.69
2018-12-10T17:11:42.635Z,98.63
2018-12-10T17:14:11.065Z,98.82
2018-12-10T17:16:41.161Z,98.33
2018-12-10T17:19:09.484Z,98.68
2018-12-10T17:21:38.025Z,98.21
2018-12-10T17:24:07.001Z,98.47
2018-12-10T17:26:35.338Z,97.78
2018-12-10T17:29:03.781Z,98.24
2018-12-10T17:31:32.113Z,98.06
2018-12-10T17:34:00.402Z,98.51
2018-12-10T17:36:28.745Z,98.26
2018-12-10T17:38:57.077Z,97.97
2018-12-10T17:41:25.451Z,97.05
2018-12-10T17:43:53.829Z,96.44
2018-12-10T17:46:22.171Z,96.99
2018-12-10T17:48:50.837Z,96.55
2018-12-10T17:51:19.158Z,96.47
2018-12-10T17:53:47.775Z,97.62
2018-12-10T17:56:16.445Z,97.80
2018-12-10T17:58:45.361Z,98.16
2018-12-10T18:01:13.969Z,99.09
2018-12-10T18:03:42.689Z,99.98
2018-12-10T18:06:11.034Z,99.99
2018-12-10T18:08:39.659Z,100.00
2018-12-10T18:11:08.009Z,100.00
2018-12-10T18:13:36.630Z,100.00
2018-12-10T18:16:05.265Z,100.00
2018-12-10T18:18:33.594Z,100.00
2018-12-10T18:21:02.618Z,100.00
2018-12-10T18:23:31.089Z,100.00
2018-12-10T18:25:59.569Z,100.00
2018-12-10T18:28:28.042Z,100.00
2018-12-10T18:30:56.374Z,100.00
2018-12-10T18:33:25.009Z,100.00
2018-12-10T18:35:54.158Z,100.00
2018-12-10T18:38:22.908Z,100.00
2018-12-10T18:40:52.385Z,100.00
2018-12-10T18:43:20.721Z,100.00
2018-12-10T18:45:49.057Z,100.00
2018-12-10T18:48:17.365Z,100.00
2018-12-10T18:50:45.689Z,100.00
2018-12-10T18:53:14.026Z,100.00
2018-12-10T18:55:42.353Z,100.00
2018-12-10T18:58:10.693Z,100.00
2018-12-10T19:00:38.999Z,100.00
2018-12-10T19:03:07.390Z,100.00
2018-12-10T19:05:35.717Z,100.00
2018-12-10T19:08:04.046Z,100.00
2018-12-10T19:10:32.353Z,100.00
2018-12-10T19:13:00.665Z,100.00
2018-12-10T19:15:28.973Z,100.00
2018-12-10T19:17:57.309Z,100.00
2018-12-10T19:20:25.877Z,100.00
2018-12-10T19:22:54.666Z,100.00
2018-12-10T19:25:23.105Z,100.00
2018-12-10T19:27:51.605Z,100.00
2018-12-10T19:30:20.593Z,100.00
2018-12-10T19:32:48.948Z,100.00
2018-12-10T19:35:17.253Z,100.00
2018-12-10T19:37:45.594Z,100.00
2018-12-10T19:40:13.906Z,100.00
2018-12-10T19:42:42.504Z,100.00
2018-12-10T19:45:10.983Z,100.00
2018-12-10T19:47:39.469Z,100.00
2018-12-10T19:50:09.052Z,100.00
2018-12-10T19:52:37.388Z,99.49
2018-12-10T19:55:06.412Z,99.40
2018-12-10T19:57:34.819Z,99.68
2018-12-10T20:00:03.394Z,100.00
2018-12-10T20:02:31.753Z,100.00
2018-12-10T20:05:00.062Z,100.00
2018-12-10T20:07:28.365Z,100.00
2018-12-10T20:09:56.693Z,100.00
2018-12-10T20:12:25.012Z,100.00
2018-12-10T20:14:53.334Z,100.00
2018-12-10T20:17:21.744Z,100.00
2018-12-10T20:19:50.078Z,100.00
2018-12-10T20:22:18.449Z,100.00
2018-12-10T20:24:47.074Z,100.00
2018-12-10T20:27:15.421Z,100.00
2018-12-10T20:29:44.202Z,100.00
2018-12-10T20:32:12.651Z,100.00
2018-12-10T20:34:41.149Z,100.00
2018-12-10T20:37:09.582Z,100.00
2018-12-10T20:39:38.101Z,100.00
2018-12-10T20:42:06.577Z,100.00
2018-12-10T20:44:34.917Z,100.00
2018-12-10T20:47:03.433Z,100.00
2018-12-10T20:49:32.030Z,100.00
2018-12-10T20:52:00.494Z,100.00
2018-12-10T20:54:28.826Z,100.00
2018-12-10T20:56:57.821Z,100.00
2018-12-10T20:59:26.479Z,100.00
2018-12-10T21:01:54.798Z,100.00
2018-12-10T21:04:23.449Z,100.00
2018-12-10T21:06:51.794Z,100.00
2018-12-10T21:09:20.113Z,100.00
2018-12-10T21:11:48.450Z,100.00
2018-12-10T21:14:16.957Z,100.00
2018-12-10T21:16:45.270Z,100.00
2018-12-10T21:19:13.822Z,100.00
2018-12-10T21:21:42.157Z,100.00
2018-12-10T21:24:10.490Z,100.00
2018-12-10T21:26:38.835Z,100.00
2018-12-10T21:29:07.217Z,100.00
2018-12-10T21:31:35.713Z,100.00
2018-12-10T21:34:05.193Z,100.00
2018-12-10T21:36:33.705Z,100.00
2018-12-10T21:39:02.261Z,100.00
2018-12-10T21:41:30.657Z,100.00
2018-12-10T21:43:59.125Z,100.00
2018-12-10T21:46:27.461Z,100.00
2018-12-10T21:48:55.773Z,100.00
2018-12-10T21:51:24.094Z,100.00
2018-12-10T21:53:52.537Z,100.00
2018-12-10T21:56:20.869Z,100.00
2018-12-10T21:58:49.502Z,100.00
2018-12-10T22:01:18.145Z,100.00
2018-12-10T22:03:46.465Z,100.00
2018-12-10T22:06:16.808Z,100.00
2018-12-10T22:08:45.109Z,100.00
2018-12-10T22:11:13.423Z,100.00
2018-12-10T22:13:41.925Z,100.00
2018-12-10T22:16:10.295Z,100.00
2018-12-10T22:18:38.609Z,100.00
2018-12-10T22:21:06.937Z,100.00
2018-12-10T22:23:35.345Z,100.00
2018-12-10T22:26:03.680Z,100.00
2018-12-10T22:28:32.334Z,100.00
2018-12-10T22:31:00.790Z,99.68
2018-12-10T22:33:29.105Z,99.25
2018-12-10T22:35:57.408Z,98.03
2018-12-10T22:38:25.751Z,97.82
2018-12-10T22:40:54.062Z,97.81
2018-12-10T22:43:22.394Z,97.58
2018-12-10T22:45:50.708Z,97.61
2018-12-10T22:48:19.038Z,97.14
2018-12-10T22:50:47.613Z,97.85
2018-12-10T22:53:15.941Z,97.49
2018-12-10T22:55:44.265Z,97.53
2018-12-10T22:58:12.612Z,97.75
2018-12-10T23:00:42.250Z,98.10
2018-12-10T23:03:10.708Z,97.47
2018-12-10T23:05:39.008Z,97.38
2018-12-10T23:08:07.532Z,96.70
2018-12-10T23:10:35.844Z,95.97
2018-12-10T23:13:04.506Z,95.76
2018-12-10T23:15:32.949Z,95.33
2018-12-10T23:18:01.250Z,96.23
2018-12-10T23:20:29.928Z,95.24
2018-12-10T23:22:58.252Z,95.35
2018-12-10T23:25:26.900Z,94.75
2018-12-10T23:27:55.897Z,94.56
2018-12-10T23:30:24.377Z,94.21
2018-12-10T23:32:53.848Z,94.40
2018-12-10T23:35:22.382Z,94.66
2018-12-10T23:37:50.840Z,94.58
2018-12-10T23:40:19.334Z,94.30
2018-12-10T23:42:53.056Z,93.75
2018-12-10T23:45:21.399Z,94.29
2018-12-10T23:47:49.713Z,94.42
2018-12-10T23:50:18.360Z,94.45
2018-12-10T23:52:46.845Z,93.74
2018-12-10T23:55:15.196Z,93.18
2018-12-10T23:57:43.785Z,93.12
